Time;durP1;ratioP1;P1;durP2;ratioP2;P2;SDS_P1;SDS_P2;PMS_P1;PMS_P2;Temp;Humidity;BMP_temperature;BMP_pressure;BME280_temperature;BME280_humidity;BME280_pressure;Samples;Min_cycle;Max_cycle;Signal;HPM_P1;HPM_P2
2022/10/01 00:01:26;;;;;;;2.42;2.13;;;;;;;1.43;78.11;98527.69;6103668;29;20056;-68
2022/10/01 00:04:28;;;;;;;2.10;1.80;;;;;;;1.41;77.35;98534.59;6102834;29;20188;-68
2022/10/01 00:07:42;;;;;;;2.50;1.95;;;;;;;1.43;77.74;98540.66;6103316;29;20101;-68
2022/10/01 00:10:44;;;;;;;2.53;2.22;;;;;;;1.59;77.44;98529.38;6103472;29;20051;-68
2022/10/01 00:13:46;;;;;;;2.10;1.88;;;;;;;1.48;77.55;98538.91;6102970;29;20052;-68
2022/10/01 00:16:52;;;;;;;2.65;2.13;;;;;;;1.38;77.26;98526.81;6103273;29;20147;-68
2022/10/01 00:19:56;;;;;;;;;;;;;;;1.40;77.78;98540.66;6103431;29;20188;-68
2022/10/01 00:22:57;;;;;;;2.70;1.77;;;;;;;1.51;77.43;98544.09;6102888;29;20381;-68
2022/10/01 00:26:19;;;;;;;2.92;2.17;;;;;;;1.48;77.49;98549.28;6103166;29;20067;-68
2022/10/01 00:29:24;;;;;;;2.17;1.75;;;;;;;1.48;76.74;98551.88;6102921;29;20414;-68
2022/10/01 00:32:33;;;;;;;2.30;2.10;;;;;;;1.42;76.98;98541.53;6103008;29;20040;-69
2022/10/01 00:35:36;;;;;;;1.90;1.60;;;;;;;1.38;77.38;98543.25;6102813;29;20119;-68
2022/10/01 00:38:45;;;;;;;3.20;2.40;;;;;;;1.39;76.83;98529.44;6102853;29;20048;-68
2022/10/01 00:41:46;;;;;;;2.40;2.20;;;;;;;1.36;77.02;98537.22;6102603;29;20502;-68
2022/10/01 00:44:50;;;;;;;2.88;1.40;;;;;;;1.46;77.08;98540.66;6102443;29;20063;-68
2022/10/01 00:47:56;;;;;;;2.53;2.20;;;;;;;1.30;77.14;98538.09;6102708;29;20059;-68
2022/10/01 00:50:58;;;;;;;2.22;1.92;;;;;;;1.29;77.82;98544.13;6102493;29;20063;-68
2022/10/01 00:54:32;;;;;;;1.88;1.65;;;;;;;1.43;78.09;98545.84;6102361;29;20139;-68
2022/10/01 00:57:35;;;;;;;2.65;1.63;;;;;;;1.57;76.85;98544.09;6080316;29;20052;-68
2022/10/01 01:00:38;;;;;;;2.03;1.85;;;;;;;1.45;76.81;98544.13;6102238;29;20050;-68
2022/10/01 01:03:39;;;;;;;2.10;1.90;;;;;;;1.44;77.13;98535.44;6102220;29;20059;-68
2022/10/01 01:07:03;;;;;;;1.73;1.27;;;;;;;1.54;76.61;98541.50;6102027;29;20511;-68
2022/10/01 01:10:06;;;;;;;3.47;1.73;;;;;;;1.64;76.07;98539.72;6101835;29;20071;-68
2022/10/01 01:13:15;;;;;;;2.77;2.17;;;;;;;1.53;76.35;98547.56;6102088;29;20062;-69
2022/10/01 01:16:33;;;;;;;2.42;1.80;;;;;;;1.51;76.46;98544.09;6101875;29;20498;-69
2022/10/01 01:20:39;;;;;;;2.17;1.17;;;;;;;1.66;75.60;98544.06;6101840;29;20470;-68
2022/10/01 01:24:08;;;;;;;1.75;1.60;;;;;;;1.58;75.35;98545.78;6100911;29;20052;-68
2022/10/01 01:27:24;;;;;;;2.28;1.77;;;;;;;1.69;74.54;98553.56;6101884;29;20080;-69
2022/10/01 01:30:26;;;;;;;1.85;1.75;;;;;;;1.48;75.71;98549.28;6101929;29;20052;-69
2022/10/01 01:33:31;;;;;;;2.47;1.90;;;;;;;1.56;75.43;98557.94;6101549;29;20052;-68
2022/10/01 01:36:36;;;;;;;2.85;2.10;;;;;;;1.53;75.09;98553.59;6101327;29;20059;-68
2022/10/01 01:39:45;;;;;;;2.22;1.90;;;;;;;1.34;75.72;98557.94;6101609;29;20138;-68
2022/10/01 01:42:48;;;;;;;2.33;1.60;;;;;;;1.35;76.28;98554.47;6101912;29;20494;-68
2022/10/01 01:45:53;;;;;;;2.05;1.90;;;;;;;1.49;75.81;98558.78;6101367;29;20422;-68
2022/10/01 01:48:56;;;;;;;2.17;1.52;;;;;;;1.51;75.28;98554.47;6102061;29;20051;-68
2022/10/01 01:52:03;;;;;;;2.20;1.60;;;;;;;1.44;75.30;98568.31;6101569;29;20079;-69
2022/10/01 01:55:07;;;;;;;2.05;1.85;;;;;;;1.52;75.16;98558.78;6103037;29;20060;-69
2022/10/01 01:58:11;;;;;;;1.75;1.50;;;;;;;1.52;75.14;98562.25;6106409;29;20136;-68
2022/10/01 02:01:40;;;;;;;2.30;2.10;;;;;;;1.44;75.28;98568.31;6106239;29;20048;-69
2022/10/01 02:05:10;;;;;;;2.63;1.98;;;;;;;1.46;75.23;98562.25;6105933;29;20059;-69
2022/10/01 02:08:36;;;;;;;2.40;1.90;;;;;;;1.52;75.30;98571.75;6100879;29;20534;-69
2022/10/01 02:12:06;;;;;;;3.15;1.48;;;;;;;1.32;75.35;98549.31;6106028;29;20134;-69
2022/10/01 02:15:20;;;;;;;2.30;1.98;;;;;;;1.57;74.84;98565.69;6105725;29;20047;-69
2022/10/01 02:18:29;;;;;;;2.75;1.80;;;;;;;1.45;75.37;98570.06;6105899;29;20519;-69
2022/10/01 02:21:50;;;;;;;2.03;1.67;;;;;;;1.64;74.39;98571.72;6105738;29;20048;-69
2022/10/01 02:24:57;;;;;;;3.38;1.98;;;;;;;1.55;74.87;98566.56;6104475;29;20048;-69
2022/10/01 02:28:05;;;;;;;1.98;1.83;;;;;;;1.42;75.36;98559.69;6103659;29;20055;-69
2022/10/01 02:31:11;;;;;;;1.95;1.60;;;;;;;1.53;75.53;98563.13;6105752;29;20040;-69
2022/10/01 02:34:17;;;;;;;2.17;1.67;;;;;;;1.53;75.53;98569.19;6105276;29;20566;-69
2022/10/01 02:37:23;;;;;;;2.60;1.52;;;;;;;1.53;75.54;98578.69;6105527;29;20052;-68
2022/10/01 02:40:27;;;;;;;2.13;1.42;;;;;;;1.57;76.17;98576.06;6105136;29;20055;-69
2022/10/01 02:43:38;;;;;;;1.65;1.45;;;;;;;1.68;76.00;98577.78;6104219;29;20475;-68
2022/10/01 02:46:52;;;;;;;2.15;1.77;;;;;;;1.69;75.69;98575.19;6105479;29;20210;-68
2022/10/01 02:49:56;;;;;;;2.33;1.88;;;;;;;1.71;75.57;98583.84;6104921;29;20103;-69
2022/10/01 02:53:18;;;;;;;2.13;1.83;;;;;;;1.72;75.87;98575.16;6104758;29;20404;-69
2022/10/01 02:59:45;;;;;;;2.67;1.67;;;;;;;1.82;75.04;98573.44;6104994;29;20052;-68
2022/10/01 03:02:50;;;;;;;3.00;2.30;;;;;;;1.82;75.50;98580.34;6105038;29;20043;-69
2022/10/01 03:05:55;;;;;;;3.45;1.63;;;;;;;1.91;75.58;98569.94;6103920;29;20147;-68
2022/10/01 03:09:00;;;;;;;2.28;1.70;;;;;;;1.95;75.24;98571.66;6104898;29;20051;-69
2022/10/01 03:12:02;;;;;;;1.50;1.40;;;;;;;2.01;75.16;98577.69;6104532;29;20075;-69
2022/10/01 03:15:10;;;;;;;2.85;1.90;;;;;;;1.99;75.31;98576.84;6104402;29;20060;-69
2022/10/01 03:18:11;;;;;;;2.42;1.85;;;;;;;2.03;75.22;98577.69;6104522;29;20052;-68
2022/10/01 03:21:15;;;;;;;3.47;2.17;;;;;;;2.14;74.98;98577.66;6104409;29;20040;-68
2022/10/01 03:24:16;;;;;;;3.00;1.90;;;;;;;2.16;74.75;98581.97;6104372;29;20502;-68
2022/10/01 03:27:19;;;;;;;2.17;1.70;;;;;;;2.22;74.68;98581.94;6104303;29;20044;-68
2022/10/01 03:30:21;;;;;;;2.50;1.63;;;;;;;2.37;74.02;98585.34;6103774;29;20059;-69
2022/10/01 03:33:25;;;;;;;2.78;1.70;;;;;;;2.34;74.14;98585.34;6104318;29;20554;-69
2022/10/01 03:36:31;;;;;;;3.40;1.98;;;;;;;2.44;73.04;98581.84;6103702;29;20080;-69
2022/10/01 03:39:35;;;;;;;2.10;1.83;;;;;;;2.43;72.79;98590.50;6104104;29;20069;-68
2022/10/01 03:42:37;;;;;;;1.77;1.50;;;;;;;2.39;73.08;98591.41;6103860;29;20402;-69
2022/10/01 03:45:38;;;;;;;2.17;1.45;;;;;;;2.35;73.61;98589.66;6104069;29;20529;-68
2022/10/01 03:48:42;;;;;;;2.97;1.70;;;;;;;2.53;73.01;98591.34;6103539;29;20048;-70
2022/10/01 03:51:48;;;;;;;1.75;1.65;;;;;;;2.34;73.66;98583.63;6104014;29;20528;-68
2022/10/01 03:54:57;;;;;;;3.47;1.88;;;;;;;2.44;73.87;98587.91;6103835;29;20048;-69
2022/10/01 03:57:59;;;;;;;3.70;2.08;;;;;;;2.62;72.77;98597.31;6103502;29;20415;-70
2022/10/01 04:01:01;;;;;;;2.33;1.95;;;;;;;2.74;73.23;98595.53;6103582;29;20048;-69
2022/10/01 04:04:02;;;;;;;1.90;1.70;;;;;;;2.81;73.19;98603.28;6103096;29;20184;-69
2022/10/01 04:07:04;;;;;;;2.50;1.80;;;;;;;2.88;72.56;98596.31;6103307;29;20075;-68
2022/10/01 04:10:06;;;;;;;2.65;1.60;;;;;;;3.01;72.26;98590.16;6103367;29;20040;-69
2022/10/01 04:13:08;;;;;;;3.80;2.00;;;;;;;2.99;72.31;98597.09;6103881;29;20052;-70
2022/10/01 04:16:11;;;;;;;;;;;;;;;3.22;70.88;98599.53;6103711;29;20052;-68
2022/10/01 04:19:13;;;;;;;3.28;1.90;;;;;;;3.10;70.33;98600.50;6102818;29;20365;-68
2022/10/01 04:22:17;;;;;;;4.00;3.03;;;;;;;3.08;70.88;98603.97;6103017;29;20147;-68
2022/10/01 04:25:21;;;;;;;2.92;2.40;;;;;;;3.27;70.41;98602.97;6102994;29;20048;-68
2022/10/01 04:28:25;;;;;;;3.40;2.17;;;;;;;3.34;69.83;98603.75;6102481;29;20403;-69
2022/10/01 04:31:33;;;;;;;4.65;2.30;;;;;;;3.53;67.97;98610.53;6102690;29;20056;-69
2022/10/01 04:34:53;;;;;;;3.08;1.90;;;;;;;3.41;67.71;98609.81;6102839;29;20174;-69
2022/10/01 04:38:02;;;;;;;2.10;1.63;;;;;;;3.33;68.82;98608.09;6102592;29;20050;-68
2022/10/01 04:41:04;;;;;;;2.50;1.50;;;;;;;3.37;68.98;98611.56;6102748;29;20044;-68
2022/10/01 04:44:05;;;;;;;3.45;1.77;;;;;;;3.54;68.58;98608.81;6102761;29;20075;-70
2022/10/01 04:47:07;;;;;;;2.22;1.63;;;;;;;3.58;68.69;98613.97;6102048;29;20043;-69
2022/10/01 04:50:09;;;;;;;2.88;1.75;;;;;;;3.64;68.24;98613.06;6102517;29;20134;-69
2022/10/01 04:53:13;;;;;;;2.75;1.38;;;;;;;3.69;68.02;98607.81;6102063;29;20525;-69
2022/10/01 04:56:14;;;;;;;3.78;2.38;;;;;;;3.91;67.22;98617.13;6101832;29;20080;-69
2022/10/01 04:59:17;;;;;;;4.97;2.95;;;;;;;3.85;66.67;98617.22;6102238;29;20498;-69
2022/10/01 05:02:21;;;;;;;1.98;1.55;;;;;;;3.90;66.37;98615.41;6102103;29;20051;-68
2022/10/01 05:05:27;;;;;;;2.35;1.48;;;;;;;3.93;66.54;98615.34;6102548;29;20087;-69
2022/10/01 05:08:30;;;;;;;11.82;7.20;;;;;;;4.04;65.96;98618.72;6101575;29;20375;-69
2022/10/01 05:11:33;;;;;;;16.52;9.55;;;;;;;4.09;65.46;98620.44;6102097;29;20058;-68
2022/10/01 05:14:39;;;;;;;4.68;2.35;;;;;;;4.22;65.44;98622.03;6101834;29;20139;-69
2022/10/01 05:17:43;;;;;;;1.52;1.35;;;;;;;4.24;64.14;98617.63;6101818;29;20048;-69
2022/10/01 05:20:48;;;;;;;2.97;1.40;;;;;;;4.08;64.86;98621.28;6101822;29;20539;-69
2022/10/01 05:23:49;;;;;;;1.50;1.40;;;;;;;4.18;64.11;98623.78;6100615;29;20502;-69
2022/10/01 05:26:53;;;;;;;1.42;1.30;;;;;;;4.09;64.53;98617.81;6100561;29;20044;-69
2022/10/01 05:30:00;;;;;;;1.65;1.55;;;;;;;4.19;63.76;98622.03;6101031;29;20052;-68
2022/10/01 05:33:03;;;;;;;1.98;1.42;;;;;;;4.17;63.79;98629.03;6101533;29;20052;-70
2022/10/01 05:36:05;;;;;;;1.35;1.20;;;;;;;4.01;64.12;98623.97;6100663;29;20127;-68
2022/10/01 05:39:10;;;;;;;16.23;8.75;;;;;;;4.00;64.36;98616.19;6101388;29;20052;-69
2022/10/01 05:42:15;;;;;;;2.67;2.05;;;;;;;4.05;64.37;98624.81;6101829;29;20062;-69
2022/10/01 05:45:18;;;;;;;2.63;1.80;;;;;;;4.11;64.05;98622.13;6101511;29;20059;-69
2022/10/01 05:48:20;;;;;;;4.22;2.85;;;;;;;4.17;63.34;98621.22;6101278;29;20138;-69
2022/10/01 05:51:24;;;;;;;;;;;;;;;4.32;62.74;98621.00;6101930;29;20418;-69
2022/10/01 05:54:28;;;;;;;1.63;1.42;;;;;;;4.19;62.90;98622.91;6101593;29;19918;-68
2022/10/01 05:57:32;;;;;;;2.05;1.42;;;;;;;4.26;63.06;98623.69;6101464;29;20599;-68
2022/10/01 06:00:39;;;;;;;1.63;1.50;;;;;;;4.42;62.14;98627.00;6101463;29;20080;-68
2022/10/01 06:03:41;;;;;;;2.22;1.45;;;;;;;4.33;62.52;98614.94;6100922;29;20430;-69
2022/10/01 06:06:46;;;;;;;2.58;1.50;;;;;;;4.41;61.72;98620.03;6101604;29;20048;-69
2022/10/01 06:09:47;;;;;;;1.25;1.20;;;;;;;4.31;62.84;98610.63;6100984;29;20352;-70
2022/10/01 06:12:51;;;;;;;3.67;1.92;;;;;;;4.42;61.95;98616.56;6101086;29;20151;-69
2022/10/01 06:15:54;;;;;;;3.33;1.80;;;;;;;4.39;62.02;98619.22;6101248;29;20107;-68
2022/10/01 06:18:58;;;;;;;1.70;1.35;;;;;;;4.28;62.55;98619.34;6101114;29;20048;-69
2022/10/01 06:21:59;;;;;;;1.83;1.40;;;;;;;4.36;62.72;98620.13;6100792;29;20112;-69
2022/10/01 06:25:00;;;;;;;7.22;4.38;;;;;;;4.40;62.71;98611.38;6101193;29;20149;-68
2022/10/01 06:28:06;;;;;;;4.65;3.47;;;;;;;4.57;62.39;98608.53;6101148;29;20044;-69
2022/10/01 06:31:10;;;;;;;4.20;3.05;;;;;;;4.58;62.75;98610.25;6100581;29;20052;-69
2022/10/01 06:34:15;;;;;;;2.67;2.03;;;;;;;4.72;62.48;98610.94;6101065;29;20052;-69
2022/10/01 06:37:21;;;;;;;1.85;1.40;;;;;;;4.97;61.83;98617.56;6099678;29;20426;-69
2022/10/01 06:40:22;;;;;;;2.42;1.60;;;;;;;5.07;61.85;98612.19;6101535;29;20051;-69
2022/10/01 06:43:29;;;;;;;2.38;1.50;;;;;;;5.27;60.23;98600.59;6105201;29;20044;-69
2022/10/01 06:46:34;;;;;;;2.75;1.40;;;;;;;5.25;61.19;98602.34;6105469;29;20067;-69
2022/10/01 06:49:36;;;;;;;3.20;2.00;;;;;;;5.35;60.64;98602.19;6105148;29;20391;-69
2022/10/01 06:52:50;;;;;;;1.80;1.60;;;;;;;5.35;60.83;98596.09;6105617;29;20059;-70
2022/10/01 06:55:56;;;;;;;1.38;1.27;;;;;;;5.40;60.45;98600.34;6104711;29;20549;-71
2022/10/01 06:58:58;;;;;;;1.52;1.35;;;;;;;5.32;59.76;98603.97;6104758;29;20047;-69
2022/10/01 07:02:00;;;;;;;1.50;1.40;;;;;;;5.20;59.91;98594.59;6104783;29;20211;-70
2022/10/01 07:05:04;;;;;;;1.30;1.20;;;;;;;5.10;60.19;98598.25;6104379;29;20207;-70
2022/10/01 07:08:08;;;;;;;1.25;1.05;;;;;;;5.07;59.98;98591.31;6103876;29;20040;-71
2022/10/01 07:11:09;;;;;;;1.50;1.13;;;;;;;5.07;60.00;98588.72;6104552;29;20130;-69
2022/10/01 07:14:11;;;;;;;1.50;1.40;;;;;;;5.16;59.99;98598.16;6104955;29;20059;-69
2022/10/01 07:17:12;;;;;;;2.25;1.30;;;;;;;5.19;59.63;98590.28;6104062;29;20430;-69
2022/10/01 07:20:16;;;;;;;1.30;1.17;;;;;;;5.08;59.66;98589.56;6104218;29;20055;-68
2022/10/01 07:23:20;;;;;;;2.65;1.35;;;;;;;5.08;59.67;98594.78;6104751;29;20048;-69
2022/10/01 07:26:24;;;;;;;1.73;1.40;;;;;;;5.07;59.45;98587.88;6105120;29;20051;-68
2022/10/01 07:29:29;;;;;;;1.63;1.52;;;;;;;5.07;59.73;98593.94;6105393;29;20134;-68
2022/10/01 07:32:34;;;;;;;1.42;1.33;;;;;;;5.19;59.02;98592.88;6104625;29;20056;-69
2022/10/01 07:35:37;;;;;;;2.97;2.20;;;;;;;5.09;59.47;98580.84;6104143;29;20051;-68
2022/10/01 07:38:38;;;;;;;2.13;1.90;;;;;;;5.08;59.25;98587.81;6103894;29;20191;-69
2022/10/01 07:41:42;;;;;;;1.67;1.58;;;;;;;5.08;59.45;98589.56;6103976;29;20108;-69
2022/10/01 07:44:46;;;;;;;2.00;1.48;;;;;;;5.18;59.65;98593.78;6103884;29;20048;-69
2022/10/01 07:47:55;;;;;;;2.42;1.42;;;;;;;5.31;59.69;98584.84;6103699;29;20052;-70
2022/10/01 07:50:59;;;;;;;4.45;1.83;;;;;;;5.43;59.08;98585.53;6103900;29;20108;-68
2022/10/01 07:54:02;;;;;;;1.55;1.45;;;;;;;5.47;59.26;98587.22;6102855;29;20063;-69
2022/10/01 07:57:05;;;;;;;1.95;1.48;;;;;;;5.57;58.71;98586.16;6103588;29;20052;-69
2022/10/01 08:00:07;;;;;;;1.95;1.50;;;;;;;5.55;57.93;98587.94;6102851;29;20063;-69
2022/10/01 08:03:11;;;;;;;2.28;1.38;;;;;;;5.56;57.59;98581.81;6101956;29;20048;-69
2022/10/01 08:06:13;;;;;;;2.25;1.75;;;;;;;5.64;57.29;98585.16;6102989;29;20055;-69
2022/10/01 08:09:15;;;;;;;1.52;1.33;;;;;;;5.71;56.62;98591.13;6103187;29;20496;-68
2022/10/01 08:12:20;;;;;;;1.70;1.60;;;;;;;5.55;57.55;98590.56;6103174;29;20052;-69
2022/10/01 08:15:24;;;;;;;1.83;1.60;;;;;;;5.70;56.26;98587.66;6102809;29;20052;-69
2022/10/01 08:18:31;;;;;;;1.85;1.73;;;;;;;5.65;56.93;98592.09;6102955;29;20047;-69
2022/10/01 08:21:36;;;;;;;2.00;1.45;;;;;;;5.83;57.36;98590.91;6102656;29;20134;-69
2022/10/01 08:24:40;;;;;;;3.00;1.75;;;;;;;6.08;56.13;98586.13;6102772;29;20047;-69
2022/10/01 08:27:41;;;;;;;3.75;2.55;;;;;;;6.28;55.71;98583.09;6102760;29;20044;-69
2022/10/01 08:30:45;;;;;;;2.60;2.33;;;;;;;6.48;55.23;98580.06;6102779;29;20179;-69
2022/10/01 08:33:49;;;;;;;2.53;2.13;;;;;;;6.69;54.17;98582.25;6102922;29;20044;-69
2022/10/01 08:36:51;;;;;;;1.85;1.73;;;;;;;6.84;53.85;98572.31;6102802;29;20051;-69
2022/10/01 08:39:54;;;;;;;2.22;1.80;;;;;;;7.06;53.84;98572.69;6102451;29;20036;-69
2022/10/01 08:43:04;;;;;;;2.67;1.67;;;;;;;7.43;52.21;98570.91;6102555;29;20044;-69
2022/10/01 08:46:20;;;;;;;3.20;1.67;;;;;;;8.09;51.77;98574.38;6102541;29;20048;-70
2022/10/01 08:49:36;;;;;;;1.52;1.42;;;;;;;8.91;48.79;98575.53;6102915;29;20052;-69
2022/10/01 08:52:51;;;;;;;2.20;1.55;;;;;;;9.18;47.59;98571.19;6102517;29;20051;-69
2022/10/01 08:55:54;;;;;;;1.00;0.95;;;;;;;9.04;47.12;98569.91;6102375;29;20063;-69
2022/10/01 08:59:41;;;;;;;1.67;1.20;;;;;;;8.93;46.95;98573.72;6101016;29;20052;-69
2022/10/01 09:02:49;;;;;;;1.20;1.08;;;;;;;8.60;46.71;98569.50;6100648;29;20048;-69
2022/10/01 09:06:21;;;;;;;1.70;1.33;;;;;;;8.40;47.16;98578.81;6101478;29;20054;-69
2022/10/01 09:09:23;;;;;;;1.63;1.30;;;;;;;8.22;47.06;98564.44;6100641;29;20067;-69
2022/10/01 09:12:41;;;;;;;2.65;2.17;;;;;;;8.26;47.83;98570.44;6101001;29;20058;-69
2022/10/01 09:16:08;;;;;;;6.28;3.58;;;;;;;8.52;46.95;98562.72;6101945;29;20088;-69
2022/10/01 09:19:56;;;;;;;;;;;;;;;;;;;;;
2022/10/01 09:24:06;;;;;;;1.58;1.45;;;;;;;8.41;47.16;98553.47;6103171;29;20454;-70
2022/10/01 09:27:17;;;;;;;2.25;1.77;;;;;;;8.44;47.36;98559.47;6101804;29;20062;-68
2022/10/01 09:30:25;;;;;;;1.50;1.40;;;;;;;8.33;47.16;98558.88;6101772;29;20060;-68
2022/10/01 09:33:37;;;;;;;2.75;2.10;;;;;;;8.18;48.19;98552.31;6101432;29;20063;-69
2022/10/01 09:37:17;;;;;;;3.42;2.38;;;;;;;8.23;47.74;98549.56;6101130;29;20518;-69
2022/10/01 09:40:47;;;;;;;2.45;2.25;;;;;;;8.19;47.97;98547.94;6101422;29;20154;-69
2022/10/01 09:43:57;;;;;;;2.95;2.05;;;;;;;8.33;48.00;98541.38;6096983;29;20052;-69
2022/10/01 09:47:01;;;;;;;2.60;2.13;;;;;;;8.48;48.05;98537.47;6101309;29;20130;-69
2022/10/01 09:50:05;;;;;;;2.25;2.00;;;;;;;8.74;47.52;98546.31;6100974;29;20044;-70
2022/10/01 09:53:13;;;;;;;;;;;;;;;8.84;46.77;98536.41;6101662;29;20052;-70
2022/10/01 09:56:28;;;;;;;1.58;1.23;;;;;;;8.59;47.09;98536.31;6101269;29;19927;-69
2022/10/01 09:59:42;;;;;;;3.58;1.83;;;;;;;8.63;46.24;98530.03;6100516;29;20063;-69
2022/10/01 10:02:48;;;;;;;3.60;1.95;;;;;;;8.52;46.63;98536.50;6100183;29;20071;-69
2022/10/01 10:05:50;;;;;;;2.72;2.10;;;;;;;8.27;46.88;98530.22;6100680;29;20146;-69
2022/10/01 10:08:54;;;;;;;3.40;1.55;;;;;;;8.08;47.36;98533.34;6100838;29;20422;-69
2022/10/01 10:11:59;;;;;;;3.55;2.13;;;;;;;7.87;48.12;98536.59;6101147;29;20085;-69
2022/10/01 10:15:15;;;;;;;2.65;2.05;;;;;;;7.78;48.68;98532.44;6101087;29;20063;-71
2022/10/01 10:18:34;;;;;;;2.42;2.10;;;;;;;7.74;48.93;98529.94;6105906;29;20418;-70
2022/10/01 10:21:36;;;;;;;1.85;1.65;;;;;;;7.89;48.76;98529.53;6105852;29;20192;-70
2022/10/01 10:24:40;;;;;;;1.73;1.48;;;;;;;8.03;48.16;98516.03;6105608;29;20414;-70
2022/10/01 10:27:54;;;;;;;2.15;1.40;;;;;;;8.18;47.98;98525.22;6105731;29;20048;-70
2022/10/01 10:30:57;;;;;;;1.13;1.02;;;;;;;8.05;48.16;98529.97;6105591;29;20075;-69
2022/10/01 10:34:13;;;;;;;1.25;1.15;;;;;;;7.98;47.56;98539.78;6105337;29;20527;-69
2022/10/01 10:37:17;;;;;;;1.75;1.17;;;;;;;7.61;48.52;98525.06;6105453;29;20075;-70
2022/10/01 10:40:33;;;;;;;2.15;1.35;;;;;;;7.62;48.44;98534.63;6105259;29;20134;-68
2022/10/01 10:43:36;;;;;;;2.42;1.58;;;;;;;7.41;48.78;98532.53;6104863;29;20052;-69
2022/10/01 10:46:38;;;;;;;1.38;1.20;;;;;;;7.37;49.28;98531.78;6104133;29;20052;-69
2022/10/01 10:49:43;;;;;;;1.73;1.35;;;;;;;7.18;49.55;98526.13;6104909;29;20052;-69
2022/10/01 10:52:47;;;;;;;2.60;1.25;;;;;;;7.22;50.12;98533.91;6105255;29;20055;-69
2022/10/01 10:56:05;;;;;;;2.83;1.63;;;;;;;7.31;49.80;98544.16;6105118;29;20071;-70
2022/10/01 10:59:09;;;;;;;1.48;1.30;;;;;;;7.10;50.05;98537.69;6104659;29;20052;-68
2022/10/01 11:02:17;;;;;;;2.03;1.48;;;;;;;6.90;50.69;98535.53;6104887;29;20044;-69
2022/10/01 11:05:22;;;;;;;1.42;1.30;;;;;;;6.87;50.50;98541.72;6104240;29;20052;-69
2022/10/01 11:08:27;;;;;;;2.97;2.00;;;;;;;6.81;50.80;98535.78;6104843;29;20127;-68
2022/10/01 11:11:37;;;;;;;4.30;1.30;;;;;;;6.77;50.89;98534.13;6104609;29;20052;-68
2022/10/01 11:15:05;;;;;;;1.75;1.25;;;;;;;6.83;51.21;98534.00;6104302;29;20583;-70
2022/10/01 11:18:38;;;;;;;6.15;3.85;;;;;;;6.81;51.13;98525.31;6104415;29;20507;-69
2022/10/01 11:21:50;;;;;;;3.38;1.90;;;;;;;6.93;50.71;98525.00;6104638;29;20138;-68
2022/10/01 11:24:58;;;;;;;3.13;1.80;;;;;;;6.79;51.28;98532.31;6104134;29;20064;-69
2022/10/01 11:28:08;;;;;;;2.35;1.88;;;;;;;6.69;51.89;98516.84;6103481;29;20060;-69
2022/10/01 11:31:33;;;;;;;3.10;2.08;;;;;;;6.77;52.02;98518.44;6104291;29;20048;-70
2022/10/01 11:34:54;;;;;;;3.72;2.20;;;;;;;6.61;52.18;98513.53;6104221;29;20051;-68
2022/10/01 11:38:17;;;;;;;1.70;1.60;;;;;;;6.55;52.54;98508.44;6104338;29;20430;-69
2022/10/01 11:41:40;;;;;;;2.83;2.17;;;;;;;6.51;52.68;98512.00;6104140;29;20056;-69
2022/10/01 11:44:49;;;;;;;2.00;1.75;;;;;;;6.45;52.99;98515.63;6104221;29;20120;-69
2022/10/01 11:48:43;;;;;;;2.53;1.52;;;;;;;6.35;53.80;98513.28;6103922;29;20059;-70
2022/10/01 11:52:06;;;;;;;1.67;1.42;;;;;;;6.37;53.17;98514.06;6054150;29;20049;-69
2022/10/01 11:59:05;;;;;;;1.95;1.73;;;;;;;6.11;53.74;98510.25;6103106;29;20063;-68
2022/10/01 12:02:24;;;;;;;2.00;1.80;;;;;;;5.92;53.94;98507.16;6102909;29;20084;-68
2022/10/01 12:05:30;;;;;;;3.78;2.65;;;;;;;5.79;54.39;98506.53;6102838;29;20103;-70
2022/10/01 12:08:37;;;;;;;3.75;2.35;;;;;;;5.75;54.52;98504.88;6103043;29;20071;-71
2022/10/01 12:11:55;;;;;;;5.68;3.53;;;;;;;5.56;54.89;98495.66;6103382;29;20056;-69
2022/10/01 12:15:13;;;;;;;4.57;2.63;;;;;;;5.51;55.40;98494.88;6103189;29;20391;-69
2022/10/01 12:18:26;;;;;;;7.97;3.35;;;;;;;5.53;55.54;98498.34;6103306;29;20135;-69
2022/10/01 12:21:37;;;;;;;6.68;2.72;;;;;;;5.53;55.87;98485.28;6103017;29;20044;-69
2022/10/01 12:24:42;;;;;;;4.80;2.58;;;;;;;5.53;55.79;98483.53;6103055;29;20046;-69
2022/10/01 12:28:06;;;;;;;2.17;1.80;;;;;;;5.61;56.36;98480.78;6102864;29;20611;-69
2022/10/01 12:31:24;;;;;;;2.67;1.98;;;;;;;5.62;56.04;98472.03;6102817;29;20072;-68
2022/10/01 12:34:55;;;;;;;2.97;1.70;;;;;;;5.61;56.01;98472.94;6102447;29;20048;-68
2022/10/01 12:38:34;;;;;;;2.50;1.80;;;;;;;5.53;56.53;98467.00;6102725;29;20044;-68
2022/10/01 12:41:47;;;;;;;3.53;1.65;;;;;;;5.54;56.58;98463.50;6080824;29;20064;-68
2022/10/01 12:45:29;;;;;;;2.47;1.38;;;;;;;5.47;56.63;98457.53;6102329;29;20052;-67
2022/10/01 12:49:02;;;;;;;1.65;1.55;;;;;;;5.48;56.64;98463.59;6100445;29;20102;-69
2022/10/01 12:52:32;;;;;;;1.65;1.40;;;;;;;5.47;56.60;98461.91;6102466;29;20047;-69
2022/10/01 12:55:50;;;;;;;1.65;1.38;;;;;;;5.36;56.74;98462.94;6102521;29;20047;-70
2022/10/01 12:59:10;;;;;;;2.15;1.30;;;;;;;5.27;56.89;98460.50;6102173;29;20044;-70
2022/10/01 13:02:16;;;;;;;2.63;1.20;;;;;;;5.32;56.65;98469.13;6101923;29;20044;-69
2022/10/01 13:05:35;;;;;;;2.40;2.03;;;;;;;5.26;56.84;98461.38;6101780;29;20407;-69
2022/10/01 13:08:37;;;;;;;2.38;1.58;;;;;;;5.14;57.77;98461.63;6101980;29;20463;-69
2022/10/01 13:12:02;;;;;;;1.90;1.70;;;;;;;5.25;57.26;98462.28;6101971;29;20083;-69
2022/10/01 13:15:10;;;;;;;1.60;1.48;;;;;;;5.19;57.44;98451.97;6102055;29;20059;-69
2022/10/01 13:18:29;;;;;;;2.47;2.03;;;;;;;5.26;57.58;98457.91;6101628;29;20056;-70
2022/10/01 13:21:56;;;;;;;2.90;1.95;;;;;;;5.08;57.82;98459.13;6100232;29;20518;-70
2022/10/01 13:25:26;;;;;;;2.67;1.27;;;;;;;5.11;57.83;98469.50;6101689;29;20103;-69
2022/10/01 13:28:46;;;;;;;3.35;1.80;;;;;;;5.08;57.94;98457.38;6101342;29;20040;-69
2022/10/01 13:31:56;;;;;;;6.30;3.35;;;;;;;5.04;58.44;98457.44;6101552;29;20040;-69
2022/10/01 13:35:00;;;;;;;4.50;2.05;;;;;;;5.00;58.37;98458.38;6101379;29;20134;-70
2022/10/01 13:38:29;;;;;;;3.45;1.65;;;;;;;4.95;58.74;98459.34;6101406;29;20070;-69
2022/10/01 13:41:38;;;;;;;1.45;1.35;;;;;;;4.89;58.98;98462.03;6096973;29;20259;-69
2022/10/01 13:44:52;;;;;;;1.75;1.63;;;;;;;4.88;59.42;98457.72;6101409;29;20056;-70
2022/10/01 13:48:22;;;;;;;;;;;;;;;4.91;58.86;98452.44;6101841;29;20047;-69
2022/10/01 13:51:36;;;;;;;2.88;1.23;;;;;;;4.80;59.52;98464.78;6104589;29;19922;-69
2022/10/01 13:54:46;;;;;;;3.05;1.60;;;;;;;4.81;59.68;98450.88;6109004;29;20051;-69
2022/10/01 13:58:04;;;;;;;5.40;4.03;;;;;;;4.80;60.00;98458.72;6109231;29;20186;-69
2022/10/01 14:01:15;;;;;;;6.63;5.65;;;;;;;4.78;60.04;98455.28;6109074;29;20413;-69
2022/10/01 14:04:39;;;;;;;7.95;5.95;;;;;;;4.82;59.88;98462.19;6109275;29;20063;-70
2022/10/01 14:07:42;;;;;;;6.47;4.10;;;;;;;4.81;60.04;98453.50;6108870;29;20044;-69
2022/10/01 14:18:03;;;;;;;3.92;1.98;;;;;;;4.85;60.11;98446.47;6061899;29;20080;-69
2022/10/01 14:21:32;;;;;;;1.90;1.60;;;;;;;4.82;59.89;98447.38;6062085;29;20049;-69
2022/10/01 14:24:49;;;;;;;2.45;1.75;;;;;;;4.83;60.32;98438.66;6062267;29;20053;-69
2022/10/01 14:28:18;;;;;;;10.30;4.57;;;;;;;4.81;60.21;98437.84;6062409;29;20579;-69
2022/10/01 14:31:44;;;;;;;5.00;2.20;;;;;;;4.85;60.25;98441.25;6062211;29;20155;-70
2022/10/01 14:35:10;;;;;;;4.07;2.08;;;;;;;4.83;59.90;98436.06;6061656;29;20899;-70
2022/10/01 14:38:19;;;;;;;2.35;2.03;;;;;;;4.74;60.05;98433.59;6061817;29;20081;-68
2022/10/01 14:41:23;;;;;;;4.15;1.92;;;;;;;4.74;60.24;98428.38;6061859;29;20072;-68
2022/10/01 14:44:28;;;;;;;;;;;;;;;4.72;60.14;98430.16;6062185;29;20057;-70
2022/10/01 14:47:37;;;;;;;2.30;1.63;;;;;;;4.80;59.68;98427.44;6061735;29;19923;-70
2022/10/01 14:50:46;;;;;;;2.28;1.55;;;;;;;4.72;59.93;98424.94;6060247;29;20049;-69
2022/10/01 14:53:55;;;;;;;2.47;1.73;;;;;;;4.59;60.56;98413.88;6061591;29;20105;-70
2022/10/01 14:56:57;;;;;;;2.97;1.88;;;;;;;4.61;60.50;98421.66;6061719;29;20052;-69
2022/10/01 15:00:05;;;;;;;4.20;2.60;;;;;;;4.50;60.67;98412.28;6061567;29;20427;-70
2022/10/01 15:03:06;;;;;;;3.17;2.30;;;;;;;4.49;61.05;98418.34;6058968;29;20052;-68
2022/10/01 15:06:15;;;;;;;6.40;2.78;;;;;;;4.45;61.43;98414.09;6058250;29;20563;-69
2022/10/01 15:09:17;;;;;;;6.00;2.72;;;;;;;4.42;61.09;98401.09;6057913;29;20049;-68
2022/10/01 15:12:22;;;;;;;5.88;3.45;;;;;;;4.42;61.33;98406.31;6057894;29;20055;-68
2022/10/01 15:15:32;;;;;;;9.43;4.60;;;;;;;4.41;61.49;98407.19;6072358;29;20075;-68
2022/10/01 15:18:37;;;;;;;6.88;3.80;;;;;;;4.40;61.65;98402.88;6104341;29;20036;-70
2022/10/01 15:21:55;;;;;;;3.40;2.22;;;;;;;4.48;61.03;98403.59;6103753;29;20051;-70